sensor_id;sensor_type;location;lat;lon;timestamp;noise_LAeq;noise_LA_min;noise_LA_max;noise_LA01;noise_LA95
45651;Laerm;31365;48.858;8.530;2023-03-01T00:02:00;39.95;33.44;43.86;;
45651;Laerm;31365;48.858;8.530;2023-03-01T00:04:28;39.23;33.44;42.41;;
45651;Laerm;31365;48.858;8.530;2023-03-01T00:06:58;39.21;33.44;43.19;;
45651;Laerm;31365;48.858;8.530;2023-03-01T00:09:28;39.24;32.93;41.89;;
45651;Laerm;31365;48.858;8.530;2023-03-01T00:11:57;41.39;34.69;50.64;;
45651;Laerm;31365;48.858;8.530;2023-03-01T00:14:26;44.34;33.44;63.35;;
45651;Laerm;31365;48.858;8.530;2023-03-01T00:16:55;38.87;34.31;43.68;;
45651;Laerm;31365;48.858;8.530;2023-03-01T00:19:23;38.68;32.35;42.16;;
45651;Laerm;31365;48.858;8.530;2023-03-01T00:21:52;39.03;33.44;42.53;;
45651;Laerm;31365;48.858;8.530;2023-03-01T00:24:20;39.12;33.44;46.02;;
45651;Laerm;31365;48.858;8.530;2023-03-01T00:26:53;52.07;33.90;72.76;;
45651;Laerm;31365;48.858;8.530;2023-03-01T00:29:26;39.22;32.35;44.90;;
45651;Laerm;31365;48.858;8.530;2023-03-01T00:31:56;53.67;32.93;73.81;;
45651;Laerm;31365;48.858;8.530;2023-03-01T00:34:26;38.80;33.44;41.82;;
45651;Laerm;31365;48.858;8.530;2023-03-01T00:36:55;38.58;32.93;41.53;;
45651;Laerm;31365;48.858;8.530;2023-03-01T00:39:33;54.78;32.35;76.48;;
45651;Laerm;31365;48.858;8.530;2023-03-01T00:42:03;38.79;33.44;43.19;;
45651;Laerm;31365;48.858;8.530;2023-03-01T00:44:32;56.75;33.44;79.29;;
45651;Laerm;31365;48.858;8.530;2023-03-01T00:47:01;39.07;33.90;44.39;;
45651;Laerm;31365;48.858;8.530;2023-03-01T00:49:31;38.42;32.93;41.68;;
45651;Laerm;31365;48.858;8.530;2023-03-01T00:52:00;38.56;32.93;41.14;;
45651;Laerm;31365;48.858;8.530;2023-03-01T00:54:28;53.04;31.68;75.10;;
45651;Laerm;31365;48.858;8.530;2023-03-01T00:56:57;38.67;32.93;41.22;;
45651;Laerm;31365;48.858;8.530;2023-03-01T00:59:27;38.80;33.90;42.53;;
45651;Laerm;31365;48.858;8.530;2023-03-01T01:01:58;39.10;33.44;44.03;;
45651;Laerm;31365;48.858;8.530;2023-03-01T01:04:27;38.92;32.35;44.03;;
45651;Laerm;31365;48.858;8.530;2023-03-01T01:06:56;38.80;33.90;41.38;;
45651;Laerm;31365;48.858;8.530;2023-03-01T01:09:26;38.62;30.89;41.22;;
45651;Laerm;31365;48.858;8.530;2023-03-01T01:14:23;38.81;33.90;41.46;;
45651;Laerm;31365;48.858;8.530;2023-03-01T01:16:53;38.79;33.09;41.94;;
45651;Laerm;31365;48.858;8.530;2023-03-01T01:19:23;38.85;33.44;41.96;;
45651;Laerm;31365;48.858;8.530;2023-03-01T01:21:53;38.88;31.68;41.38;;
45651;Laerm;31365;48.858;8.530;2023-03-01T01:24:22;38.90;32.35;41.89;;
45651;Laerm;31365;48.858;8.530;2023-03-01T01:26:51;53.66;32.93;76.95;;
45651;Laerm;31365;48.858;8.530;2023-03-01T01:29:19;53.06;34.31;72.45;;
45651;Laerm;31365;48.858;8.530;2023-03-01T01:31:48;38.76;32.93;42.65;;
45651;Laerm;31365;48.858;8.530;2023-03-01T01:34:21;54.03;33.90;75.85;;
45651;Laerm;31365;48.858;8.530;2023-03-01T01:36:51;54.19;32.35;75.29;;
45651;Laerm;31365;48.858;8.530;2023-03-01T01:39:21;38.96;33.44;43.68;;
45651;Laerm;31365;48.858;8.530;2023-03-01T01:41:50;51.26;32.35;69.91;;
45651;Laerm;31365;48.858;8.530;2023-03-01T01:44:22;55.87;32.93;76.38;;
45651;Laerm;31365;48.858;8.530;2023-03-01T01:46:55;51.27;32.35;70.12;;
45651;Laerm;31365;48.858;8.530;2023-03-01T01:49:32;38.96;33.44;41.68;;
45651;Laerm;31365;48.858;8.530;2023-03-01T01:52:11;38.78;32.93;41.22;;
45651;Laerm;31365;48.858;8.530;2023-03-01T01:57:19;38.87;32.35;41.82;;
45651;Laerm;31365;48.858;8.530;2023-03-01T01:59:52;38.77;33.44;41.22;;
45651;Laerm;31365;48.858;8.530;2023-03-01T02:02:24;39.14;32.35;43.39;;
45651;Laerm;31365;48.858;8.530;2023-03-01T02:05:05;50.43;34.31;68.99;;
45651;Laerm;31365;48.858;8.530;2023-03-01T02:07:39;39.16;30.89;42.59;;
45651;Laerm;31365;48.858;8.530;2023-03-01T02:10:10;39.02;30.89;41.53;;
45651;Laerm;31365;48.858;8.530;2023-03-01T02:12:40;38.71;31.68;42.16;;
45651;Laerm;31365;48.858;8.530;2023-03-01T02:15:10;38.91;32.35;44.31;;
45651;Laerm;31365;48.858;8.530;2023-03-01T02:17:38;38.75;31.68;41.61;;
45651;Laerm;31365;48.858;8.530;2023-03-01T02:20:21;39.54;33.90;42.98;;
45651;Laerm;31365;48.858;8.530;2023-03-01T02:22:55;39.12;33.44;43.14;;
45651;Laerm;31365;48.858;8.530;2023-03-01T02:25:31;39.36;30.89;42.03;;
45651;Laerm;31365;48.858;8.530;2023-03-01T02:30:44;40.24;34.31;45.04;;
45651;Laerm;31365;48.858;8.530;2023-03-01T02:33:27;39.37;33.44;42.29;;
45651;Laerm;31365;48.858;8.530;2023-03-01T02:36:03;39.33;34.69;42.47;;
45651;Laerm;31365;48.858;8.530;2023-03-01T02:38:33;39.21;32.93;41.68;;
45651;Laerm;31365;48.858;8.530;2023-03-01T02:41:05;40.38;34.31;63.08;;
45651;Laerm;31365;48.858;8.530;2023-03-01T02:43:35;39.54;34.69;49.66;;
45651;Laerm;31365;48.858;8.530;2023-03-01T02:46:08;39.12;33.90;42.93;;
45651;Laerm;31365;48.858;8.530;2023-03-01T02:48:44;39.03;32.93;43.49;;
45651;Laerm;31365;48.858;8.530;2023-03-01T02:51:28;58.12;33.90;78.99;;
45651;Laerm;31365;48.858;8.530;2023-03-01T02:54:12;39.22;34.31;41.89;;
45651;Laerm;31365;48.858;8.530;2023-03-01T02:56:45;52.90;33.90;72.39;;
45651;Laerm;31365;48.858;8.530;2023-03-01T02:59:22;38.76;32.93;41.30;;
45651;Laerm;31365;48.858;8.530;2023-03-01T03:01:52;39.58;33.44;45.23;;
45651;Laerm;31365;48.858;8.530;2023-03-01T03:04:21;39.23;33.90;43.24;;
45651;Laerm;31365;48.858;8.530;2023-03-01T03:06:51;61.62;33.90;80.64;;
45651;Laerm;31365;48.858;8.530;2023-03-01T03:09:20;40.10;36.45;46.35;;
45651;Laerm;31365;48.858;8.530;2023-03-01T03:11:49;40.00;34.69;46.92;;
45651;Laerm;31365;48.858;8.530;2023-03-01T03:14:18;57.07;36.20;75.40;;
45651;Laerm;31365;48.858;8.530;2023-03-01T03:16:49;40.45;34.31;54.04;;
45651;Laerm;31365;48.858;8.530;2023-03-01T03:19:20;42.70;38.74;47.63;;
45651;Laerm;31365;48.858;8.530;2023-03-01T03:21:48;62.04;37.70;80.06;;
45651;Laerm;31365;48.858;8.530;2023-03-01T03:24:16;61.57;37.88;80.96;;
45651;Laerm;31365;48.858;8.530;2023-03-01T03:26:45;58.62;38.52;77.78;;
45651;Laerm;31365;48.858;8.530;2023-03-01T03:29:14;55.68;38.05;77.74;;
45651;Laerm;31365;48.858;8.530;2023-03-01T03:31:42;40.43;38.21;43.72;;
45651;Laerm;31365;48.858;8.530;2023-03-01T03:34:10;40.30;38.21;41.96;;
45651;Laerm;31365;48.858;8.530;2023-03-01T03:36:46;43.05;38.21;59.61;;
45651;Laerm;31365;48.858;8.530;2023-03-01T03:39:15;53.45;38.32;71.27;;
45651;Laerm;31365;48.858;8.530;2023-03-01T03:41:46;56.10;38.81;72.61;;
45651;Laerm;31365;48.858;8.530;2023-03-01T03:44:14;40.78;38.21;44.31;;
45651;Laerm;31365;48.858;8.530;2023-03-01T03:46:43;44.25;38.21;57.54;;
45651;Laerm;31365;48.858;8.530;2023-03-01T03:49:11;50.58;38.37;70.08;;
45651;Laerm;31365;48.858;8.530;2023-03-01T03:51:41;52.01;38.37;72.57;;
45651;Laerm;31365;48.858;8.530;2023-03-01T03:54:11;55.55;38.37;77.34;;
45651;Laerm;31365;48.858;8.530;2023-03-01T03:56:39;45.27;38.52;64.95;;
45651;Laerm;31365;48.858;8.530;2023-03-01T03:59:08;53.82;39.08;73.26;;
45651;Laerm;31365;48.858;8.530;2023-03-01T04:01:38;54.25;38.95;72.49;;
45651;Laerm;31365;48.858;8.530;2023-03-01T04:04:06;56.18;40.62;75.58;;
45651;Laerm;31365;48.858;8.530;2023-03-01T04:06:35;47.92;40.03;64.14;;
45651;Laerm;31365;48.858;8.530;2023-03-01T04:09:04;52.45;38.95;71.38;;
45651;Laerm;31365;48.858;8.530;2023-03-01T04:11:36;54.80;39.08;72.55;;
45651;Laerm;31365;48.858;8.530;2023-03-01T04:14:05;60.04;38.67;74.83;;
45651;Laerm;31365;48.858;8.530;2023-03-01T04:16:34;52.39;39.21;71.52;;
45651;Laerm;31365;48.858;8.530;2023-03-01T04:19:03;57.53;38.95;77.82;;
45651;Laerm;31365;48.858;8.530;2023-03-01T04:21:33;54.71;38.67;73.43;;
45651;Laerm;31365;48.858;8.530;2023-03-01T04:24:04;59.08;38.52;76.78;;
45651;Laerm;31365;48.858;8.530;2023-03-01T04:26:35;56.32;39.21;76.79;;
45651;Laerm;31365;48.858;8.530;2023-03-01T04:29:03;62.57;39.21;78.83;;
45651;Laerm;31365;48.858;8.530;2023-03-01T04:31:32;60.97;39.70;79.95;;
45651;Laerm;31365;48.858;8.530;2023-03-01T04:34:01;61.19;39.08;79.70;;
45651;Laerm;31365;48.858;8.530;2023-03-01T04:36:30;59.20;39.23;75.98;;
45651;Laerm;31365;48.858;8.530;2023-03-01T04:38:59;59.28;39.58;76.51;;
45651;Laerm;31365;48.858;8.530;2023-03-01T04:41:41;62.01;39.46;81.87;;
45651;Laerm;31365;48.858;8.530;2023-03-01T04:44:10;60.44;40.13;78.01;;
45651;Laerm;31365;48.858;8.530;2023-03-01T04:46:39;59.81;39.08;77.65;;
45651;Laerm;31365;48.858;8.530;2023-03-01T04:49:08;63.35;39.70;79.79;;
45651;Laerm;31365;48.858;8.530;2023-03-01T04:51:36;61.10;40.23;74.59;;
45651;Laerm;31365;48.858;8.530;2023-03-01T04:54:05;63.78;40.23;82.52;;
45651;Laerm;31365;48.858;8.530;2023-03-01T04:56:36;64.00;40.89;79.50;;
45651;Laerm;31365;48.858;8.530;2023-03-01T04:59:06;59.82;40.03;78.88;;
45651;Laerm;31365;48.858;8.530;2023-03-01T05:01:37;63.06;40.23;79.54;;
45651;Laerm;31365;48.858;8.530;2023-03-01T05:04:06;64.89;42.47;81.18;;
45651;Laerm;31365;48.858;8.530;2023-03-01T05:06:41;62.26;40.03;82.36;;
45651;Laerm;31365;48.858;8.530;2023-03-01T05:09:09;59.07;40.03;76.08;;
45651;Laerm;31365;48.858;8.530;2023-03-01T05:14:10;66.06;42.29;81.62;;
45651;Laerm;31365;48.858;8.530;2023-03-01T05:16:39;64.02;40.62;79.98;;
45651;Laerm;31365;48.858;8.530;2023-03-01T05:19:07;64.02;40.62;79.98;;
45651;Laerm;31365;48.858;8.530;2023-03-01T05:21:42;62.40;39.92;81.16;;
45651;Laerm;31365;48.858;8.530;2023-03-01T05:24:26;63.60;41.46;78.30;;
45651;Laerm;31365;48.858;8.530;2023-03-01T05:26:55;62.16;40.80;75.07;;
45651;Laerm;31365;48.858;8.530;2023-03-01T05:29:27;67.61;42.53;87.77;;
45651;Laerm;31365;48.858;8.530;2023-03-01T05:32:00;63.77;41.38;82.20;;
45651;Laerm;31365;48.858;8.530;2023-03-01T05:34:32;64.21;41.88;81.40;;
45651;Laerm;31365;48.858;8.530;2023-03-01T05:37:02;63.26;42.03;80.05;;
45651;Laerm;31365;48.858;8.530;2023-03-01T05:39:32;63.12;40.80;82.03;;
45651;Laerm;31365;48.858;8.530;2023-03-01T05:42:01;64.81;45.33;76.31;;
45651;Laerm;31365;48.858;8.530;2023-03-01T05:44:31;66.07;42.22;81.88;;
45651;Laerm;31365;48.858;8.530;2023-03-01T05:47:00;63.11;42.93;77.66;;
45651;Laerm;31365;48.858;8.530;2023-03-01T05:49:28;65.89;41.82;81.61;;
45651;Laerm;31365;48.858;8.530;2023-03-01T05:51:57;64.65;42.03;80.87;;
45651;Laerm;31365;48.858;8.530;2023-03-01T05:54:25;64.85;41.68;79.53;;
45651;Laerm;31365;48.858;8.530;2023-03-01T05:56:53;64.79;41.96;79.24;;
45651;Laerm;31365;48.858;8.530;2023-03-01T05:59:23;66.65;46.62;81.45;;
45651;Laerm;31365;48.858;8.530;2023-03-01T06:01:52;63.99;42.41;80.14;;
45651;Laerm;31365;48.858;8.530;2023-03-01T06:04:21;63.73;42.29;79.84;;
45651;Laerm;31365;48.858;8.530;2023-03-01T06:06:50;63.94;43.68;77.09;;
45651;Laerm;31365;48.858;8.530;2023-03-01T06:09:19;66.46;45.80;79.75;;
45651;Laerm;31365;48.858;8.530;2023-03-01T06:11:47;64.16;40.71;78.01;;
45651;Laerm;31365;48.858;8.530;2023-03-01T06:14:15;66.14;43.80;78.82;;
45651;Laerm;31365;48.858;8.530;2023-03-01T06:16:44;68.45;44.62;83.74;;
45651;Laerm;31365;48.858;8.530;2023-03-01T06:21:42;66.22;49.91;78.28;;
45651;Laerm;31365;48.858;8.530;2023-03-01T06:24:11;66.44;45.23;81.44;;
45651;Laerm;31365;48.858;8.530;2023-03-01T06:26:39;64.78;44.07;78.77;;
45651;Laerm;31365;48.858;8.530;2023-03-01T06:31:37;65.89;43.09;82.45;;
45651;Laerm;31365;48.858;8.530;2023-03-01T06:34:06;63.09;42.09;77.08;;
45651;Laerm;31365;48.858;8.530;2023-03-01T06:36:36;63.29;42.71;79.89;;
45651;Laerm;31365;48.858;8.530;2023-03-01T06:39:05;66.41;44.90;79.19;;
45651;Laerm;31365;48.858;8.530;2023-03-01T06:41:34;64.63;43.63;79.76;;
45651;Laerm;31365;48.858;8.530;2023-03-01T06:44:02;66.89;45.54;81.76;;
45651;Laerm;31365;48.858;8.530;2023-03-01T06:46:32;66.00;45.97;78.29;;
45651;Laerm;31365;48.858;8.530;2023-03-01T06:49:00;65.33;41.89;78.56;;
45651;Laerm;31365;48.858;8.530;2023-03-01T06:51:31;67.76;42.98;85.17;;
45651;Laerm;31365;48.858;8.530;2023-03-01T06:54:03;66.83;44.69;82.90;;
45651;Laerm;31365;48.858;8.530;2023-03-01T06:56:32;65.09;42.59;79.67;;
45651;Laerm;31365;48.858;8.530;2023-03-01T06:59:03;65.09;42.59;79.67;;
45651;Laerm;31365;48.858;8.530;2023-03-01T07:01:31;63.94;41.68;80.85;;
45651;Laerm;31365;48.858;8.530;2023-03-01T07:04:00;62.40;40.13;77.58;;
45651;Laerm;31365;48.858;8.530;2023-03-01T07:06:28;63.87;43.29;78.25;;
45651;Laerm;31365;48.858;8.530;2023-03-01T07:08:57;66.78;49.89;78.38;;
45651;Laerm;31365;48.858;8.530;2023-03-01T07:11:27;66.09;45.36;79.20;;
45651;Laerm;31365;48.858;8.530;2023-03-01T07:13:56;66.21;41.68;83.19;;
45651;Laerm;31365;48.858;8.530;2023-03-01T07:16:25;64.84;45.20;84.04;;
45651;Laerm;31365;48.858;8.530;2023-03-01T07:18:55;66.09;43.34;83.62;;
45651;Laerm;31365;48.858;8.530;2023-03-01T07:21:25;64.75;45.60;78.60;;
45651;Laerm;31365;48.858;8.530;2023-03-01T07:23:54;62.48;41.22;77.36;;
45651;Laerm;31365;48.858;8.530;2023-03-01T07:26:22;61.53;42.09;76.08;;
45651;Laerm;31365;48.858;8.530;2023-03-01T07:28:53;68.85;44.27;83.20;;
45651;Laerm;31365;48.858;8.530;2023-03-01T07:31:22;65.38;45.20;78.65;;
45651;Laerm;31365;48.858;8.530;2023-03-01T07:33:51;65.62;44.76;78.97;;
45651;Laerm;31365;48.858;8.530;2023-03-01T07:36:20;64.76;42.41;79.86;;
45651;Laerm;31365;48.858;8.530;2023-03-01T07:38:49;65.80;43.94;81.75;;
45651;Laerm;31365;48.858;8.530;2023-03-01T07:41:18;63.85;44.65;79.08;;
45651;Laerm;31365;48.858;8.530;2023-03-01T07:43:46;62.84;43.68;78.97;;
45651;Laerm;31365;48.858;8.530;2023-03-01T07:46:16;65.89;43.63;79.13;;
45651;Laerm;31365;48.858;8.530;2023-03-01T07:48:46;62.96;42.59;79.02;;
45651;Laerm;31365;48.858;8.530;2023-03-01T07:51:15;65.24;42.88;86.93;;
45651;Laerm;31365;48.858;8.530;2023-03-01T07:53:48;66.15;43.68;84.01;;
45651;Laerm;31365;48.858;8.530;2023-03-01T07:56:17;65.63;42.93;81.49;;
45651;Laerm;31365;48.858;8.530;2023-03-01T07:58:49;65.66;42.29;84.21;;
45651;Laerm;31365;48.858;8.530;2023-03-01T08:01:21;62.99;41.89;79.01;;
45651;Laerm;31365;48.858;8.530;2023-03-01T08:03:50;64.27;43.72;79.66;;
45651;Laerm;31365;48.858;8.530;2023-03-01T08:06:20;64.19;42.88;81.35;;
45651;Laerm;31365;48.858;8.530;2023-03-01T08:08:51;65.45;39.34;81.76;;
45651;Laerm;31365;48.858;8.530;2023-03-01T08:11:22;62.19;43.63;76.38;;
45651;Laerm;31365;48.858;8.530;2023-03-01T08:13:51;61.72;40.80;76.32;;
45651;Laerm;31365;48.858;8.530;2023-03-01T08:16:22;61.78;40.62;77.78;;
45651;Laerm;31365;48.858;8.530;2023-03-01T08:18:51;67.08;43.44;87.39;;
45651;Laerm;31365;48.858;8.530;2023-03-01T08:21:23;64.52;41.30;82.82;;
45651;Laerm;31365;48.858;8.530;2023-03-01T08:23:51;62.43;39.70;87.45;;
45651;Laerm;31365;48.858;8.530;2023-03-01T08:26:21;66.60;42.16;84.12;;
45651;Laerm;31365;48.858;8.530;2023-03-01T08:28:50;62.71;39.92;75.49;;
45651;Laerm;31365;48.858;8.530;2023-03-01T08:31:23;63.83;43.34;81.65;;
45651;Laerm;31365;48.858;8.530;2023-03-01T08:33:55;64.84;42.47;82.44;;
45651;Laerm;31365;48.858;8.530;2023-03-01T08:36:26;61.45;41.30;76.01;;
45651;Laerm;31365;48.858;8.530;2023-03-01T08:38:56;61.50;41.46;79.63;;
45651;Laerm;31365;48.858;8.530;2023-03-01T08:41:28;64.95;43.86;79.14;;
45651;Laerm;31365;48.858;8.530;2023-03-01T08:43:57;66.06;42.65;86.35;;
45651;Laerm;31365;48.858;8.530;2023-03-01T08:46:32;63.86;42.53;78.09;;
45651;Laerm;31365;48.858;8.530;2023-03-01T08:49:04;59.68;40.03;74.33;;
45651;Laerm;31365;48.858;8.530;2023-03-01T08:51:34;67.09;42.41;83.63;;
45651;Laerm;31365;48.858;8.530;2023-03-01T08:54:06;63.80;44.54;77.01;;
45651;Laerm;31365;48.858;8.530;2023-03-01T08:56:38;64.02;41.22;81.14;;
45651;Laerm;31365;48.858;8.530;2023-03-01T08:59:07;62.33;43.39;74.70;;
45651;Laerm;31365;48.858;8.530;2023-03-01T09:01:37;62.55;41.96;75.14;;
45651;Laerm;31365;48.858;8.530;2023-03-01T09:04:07;64.28;42.65;77.72;;
45651;Laerm;31365;48.858;8.530;2023-03-01T09:06:39;61.35;41.30;79.42;;
45651;Laerm;31365;48.858;8.530;2023-03-01T09:09:14;63.55;43.04;77.91;;
45651;Laerm;31365;48.858;8.530;2023-03-01T09:11:43;60.27;40.03;76.40;;
45651;Laerm;31365;48.858;8.530;2023-03-01T09:14:17;63.51;38.67;79.25;;
45651;Laerm;31365;48.858;8.530;2023-03-01T09:16:48;58.94;40.33;72.95;;
45651;Laerm;31365;48.858;8.530;2023-03-01T09:19:20;65.70;43.44;81.99;;
45651;Laerm;31365;48.858;8.530;2023-03-01T09:21:53;62.48;40.71;75.86;;
45651;Laerm;31365;48.858;8.530;2023-03-01T09:24:24;61.20;42.71;74.45;;
45651;Laerm;31365;48.858;8.530;2023-03-01T09:26:55;62.94;40.53;77.68;;
45651;Laerm;31365;48.858;8.530;2023-03-01T09:29:25;65.40;41.68;86.71;;
45651;Laerm;31365;48.858;8.530;2023-03-01T09:31:55;62.50;40.53;75.23;;
45651;Laerm;31365;48.858;8.530;2023-03-01T09:34:24;65.50;41.22;87.72;;
45651;Laerm;31365;48.858;8.530;2023-03-01T09:36:53;60.83;39.58;78.82;;
45651;Laerm;31365;48.858;8.530;2023-03-01T09:39:21;61.62;39.58;76.89;;
45651;Laerm;31365;48.858;8.530;2023-03-01T09:42:01;64.75;40.27;79.78;;
45651;Laerm;31365;48.858;8.530;2023-03-01T09:44:41;66.25;40.71;82.10;;
45651;Laerm;31365;48.858;8.530;2023-03-01T09:47:18;62.35;39.70;80.40;;
45651;Laerm;31365;48.858;8.530;2023-03-01T09:50:00;59.58;39.58;76.02;;
45651;Laerm;31365;48.858;8.530;2023-03-01T09:52:38;64.45;42.09;81.49;;
45651;Laerm;31365;48.858;8.530;2023-03-01T09:55:13;63.90;38.95;79.06;;
45651;Laerm;31365;48.858;8.530;2023-03-01T09:57:51;64.69;40.71;82.65;;
45651;Laerm;31365;48.858;8.530;2023-03-01T10:00:39;63.31;39.46;77.69;;
45651;Laerm;31365;48.858;8.530;2023-03-01T10:03:20;62.32;41.46;81.66;;
45651;Laerm;31365;48.858;8.530;2023-03-01T10:08:36;63.00;40.98;77.05;;
45651;Laerm;31365;48.858;8.530;2023-03-01T10:11:21;62.70;43.14;77.64;;
45651;Laerm;31365;48.858;8.530;2023-03-01T10:13:59;63.73;40.98;81.24;;
45651;Laerm;31365;48.858;8.530;2023-03-01T10:16:43;66.35;41.96;82.49;;
45651;Laerm;31365;48.858;8.530;2023-03-01T10:19:27;65.03;42.03;85.43;;
45651;Laerm;31365;48.858;8.530;2023-03-01T10:22:04;65.21;41.82;80.21;;
45651;Laerm;31365;48.858;8.530;2023-03-01T10:24:37;58.85;40.23;77.51;;
45651;Laerm;31365;48.858;8.530;2023-03-01T10:27:14;61.47;38.37;75.45;;
45651;Laerm;31365;48.858;8.530;2023-03-01T10:29:56;60.43;39.70;75.62;;
45651;Laerm;31365;48.858;8.530;2023-03-01T10:32:29;57.67;40.53;71.89;;
45651;Laerm;31365;48.858;8.530;2023-03-01T10:35:00;61.64;40.33;76.31;;
45651;Laerm;31365;48.858;8.530;2023-03-01T10:37:30;61.29;40.62;79.28;;
45651;Laerm;31365;48.858;8.530;2023-03-01T10:40:04;63.27;39.34;85.57;;
45651;Laerm;31365;48.858;8.530;2023-03-01T10:42:45;66.41;38.95;84.01;;
45651;Laerm;31365;48.858;8.530;2023-03-01T10:45:29;64.08;41.30;78.63;;
45651;Laerm;31365;48.858;8.530;2023-03-01T10:48:14;64.27;40.80;79.81;;
45651;Laerm;31365;48.858;8.530;2023-03-01T10:50:48;61.38;40.98;75.28;;
45651;Laerm;31365;48.858;8.530;2023-03-01T10:53:24;63.14;40.80;83.56;;
45651;Laerm;31365;48.858;8.530;2023-03-01T10:56:00;62.46;42.59;80.67;;
45651;Laerm;31365;48.858;8.530;2023-03-01T10:58:30;66.27;40.53;82.32;;
45651;Laerm;31365;48.858;8.530;2023-03-01T11:01:01;62.23;41.38;79.39;;
45651;Laerm;31365;48.858;8.530;2023-03-01T11:03:33;63.27;41.14;78.95;;
45651;Laerm;31365;48.858;8.530;2023-03-01T11:06:12;66.68;43.14;82.75;;
45651;Laerm;31365;48.858;8.530;2023-03-01T11:08:50;60.49;40.43;76.13;;
45651;Laerm;31365;48.858;8.530;2023-03-01T11:11:29;64.56;42.03;80.65;;
45651;Laerm;31365;48.858;8.530;2023-03-01T11:14:05;65.32;40.13;78.90;;
45651;Laerm;31365;48.858;8.530;2023-03-01T11:17:01;66.86;43.04;80.00;;
45651;Laerm;31365;48.858;8.530;2023-03-01T11:19:29;68.43;40.36;84.28;;
45651;Laerm;31365;48.858;8.530;2023-03-01T11:22:05;64.49;40.89;81.67;;
45651;Laerm;31365;48.858;8.530;2023-03-01T11:24:40;62.32;40.62;76.19;;
45651;Laerm;31365;48.858;8.530;2023-03-01T11:27:20;62.50;40.98;76.31;;
45651;Laerm;31365;48.858;8.530;2023-03-01T11:29:54;60.61;39.08;76.66;;
45651;Laerm;31365;48.858;8.530;2023-03-01T11:32:31;64.74;42.22;82.16;;
45651;Laerm;31365;48.858;8.530;2023-03-01T11:35:10;63.31;43.04;83.22;;
45651;Laerm;31365;48.858;8.530;2023-03-01T11:37:56;66.01;41.46;84.27;;
45651;Laerm;31365;48.858;8.530;2023-03-01T11:40:33;59.33;38.37;73.24;;
45651;Laerm;31365;48.858;8.530;2023-03-01T11:43:14;63.24;39.21;82.27;;
45651;Laerm;31365;48.858;8.530;2023-03-01T11:46:25;61.41;40.18;76.96;;
45651;Laerm;31365;48.858;8.530;2023-03-01T11:49:27;62.69;41.30;76.77;;
45651;Laerm;31365;48.858;8.530;2023-03-01T11:52:08;63.83;42.00;83.99;;
45651;Laerm;31365;48.858;8.530;2023-03-01T11:55:03;64.86;41.89;80.07;;
45651;Laerm;31365;48.858;8.530;2023-03-01T11:57:53;64.48;40.80;80.16;;
45651;Laerm;31365;48.858;8.530;2023-03-01T12:00:48;61.45;39.08;75.81;;
45651;Laerm;31365;48.858;8.530;2023-03-01T12:03:35;62.98;42.65;75.59;;
45651;Laerm;31365;48.858;8.530;2023-03-01T12:06:49;64.10;49.79;84.13;;
45651;Laerm;31365;48.858;8.530;2023-03-01T12:10:04;62.55;42.98;76.90;;
45651;Laerm;31365;48.858;8.530;2023-03-01T12:12:58;61.79;43.09;75.34;;
45651;Laerm;31365;48.858;8.530;2023-03-01T12:16:20;60.53;43.09;76.64;;
45651;Laerm;31365;48.858;8.530;2023-03-01T12:19:29;63.36;40.71;80.23;;
45651;Laerm;31365;48.858;8.530;2023-03-01T12:22:20;60.04;39.92;73.46;;
45651;Laerm;31365;48.858;8.530;2023-03-01T12:25:20;61.61;41.82;75.20;;
45651;Laerm;31365;48.858;8.530;2023-03-01T12:28:35;60.33;42.06;75.17;;
45651;Laerm;31365;48.858;8.530;2023-03-01T12:31:33;60.04;42.82;76.23;;
45651;Laerm;31365;48.858;8.530;2023-03-01T12:34:24;61.14;40.89;72.82;;
45651;Laerm;31365;48.858;8.530;2023-03-01T12:37:18;59.68;38.67;75.63;;
45651;Laerm;31365;48.858;8.530;2023-03-01T12:40:10;61.23;39.81;77.35;;
45651;Laerm;31365;48.858;8.530;2023-03-01T12:42:51;62.18;40.03;77.65;;
45651;Laerm;31365;48.858;8.530;2023-03-01T12:45:45;60.88;41.68;77.67;;
45651;Laerm;31365;48.858;8.530;2023-03-01T12:48:36;66.16;42.98;88.73;;
45651;Laerm;31365;48.858;8.530;2023-03-01T12:51:14;61.24;41.75;77.98;;
45651;Laerm;31365;48.858;8.530;2023-03-01T12:53:47;60.57;42.47;76.25;;
45651;Laerm;31365;48.858;8.530;2023-03-01T15:27:25;63.74;42.76;77.66;;
45651;Laerm;31365;48.858;8.530;2023-03-01T15:29:59;65.56;47.68;79.27;;
45651;Laerm;31365;48.858;8.530;2023-03-01T15:32:32;64.44;45.07;78.55;;
45651;Laerm;31365;48.858;8.530;2023-03-01T15:38:24;66.31;43.99;82.75;;
45651;Laerm;31365;48.858;8.530;2023-03-01T15:40:54;66.92;45.99;80.34;;
45651;Laerm;31365;48.858;8.530;2023-03-01T15:43:44;66.59;45.25;81.35;;
45651;Laerm;31365;48.858;8.530;2023-03-01T15:46:19;64.93;43.94;79.88;;
45651;Laerm;31365;48.858;8.530;2023-03-01T15:48:54;63.86;44.97;79.16;;
45651;Laerm;31365;48.858;8.530;2023-03-01T15:51:31;65.76;45.23;77.66;;
45651;Laerm;31365;48.858;8.530;2023-03-01T15:54:05;65.86;45.27;80.74;;
45651;Laerm;31365;48.858;8.530;2023-03-01T15:56:34;64.67;44.94;76.81;;
45651;Laerm;31365;48.858;8.530;2023-03-01T15:59:04;63.91;42.22;80.81;;
45651;Laerm;31365;48.858;8.530;2023-03-01T16:01:34;65.23;43.77;79.02;;
45651;Laerm;31365;48.858;8.530;2023-03-01T16:04:02;64.52;41.30;77.38;;
45651;Laerm;31365;48.858;8.530;2023-03-01T16:06:31;61.63;43.09;74.86;;
45651;Laerm;31365;48.858;8.530;2023-03-01T16:08:59;62.11;42.76;72.74;;
45651;Laerm;31365;48.858;8.530;2023-03-01T16:11:29;66.73;42.88;89.88;;
45651;Laerm;31365;48.858;8.530;2023-03-01T16:13:59;65.34;44.27;75.89;;
45651;Laerm;31365;48.858;8.530;2023-03-01T16:16:29;64.09;42.88;79.51;;
45651;Laerm;31365;48.858;8.530;2023-03-01T16:18:58;64.17;43.29;76.29;;
45651;Laerm;31365;48.858;8.530;2023-03-01T16:21:27;65.59;42.16;80.77;;
45651;Laerm;31365;48.858;8.530;2023-03-01T16:23:58;65.69;41.61;80.07;;
45651;Laerm;31365;48.858;8.530;2023-03-01T16:28:57;63.75;42.53;79.46;;
45651;Laerm;31365;48.858;8.530;2023-03-01T16:31:27;64.30;42.47;78.01;;
45651;Laerm;31365;48.858;8.530;2023-03-01T16:33:59;64.18;42.98;78.97;;
45651;Laerm;31365;48.858;8.530;2023-03-01T16:36:28;63.76;43.94;78.56;;
45651;Laerm;31365;48.858;8.530;2023-03-01T16:38:59;68.35;45.69;87.67;;
45651;Laerm;31365;48.858;8.530;2023-03-01T16:41:30;64.10;45.75;77.85;;
45651;Laerm;31365;48.858;8.530;2023-03-01T16:43:59;63.64;49.57;74.62;;
45651;Laerm;31365;48.858;8.530;2023-03-01T16:46:28;63.43;47.40;75.56;;
45651;Laerm;31365;48.858;8.530;2023-03-01T16:48:58;65.49;48.18;78.24;;
45651;Laerm;31365;48.858;8.530;2023-03-01T16:51:27;64.62;45.48;82.29;;
45651;Laerm;31365;48.858;8.530;2023-03-01T16:53:58;63.87;46.10;78.81;;
45651;Laerm;31365;48.858;8.530;2023-03-01T16:56:28;64.20;46.93;77.37;;
45651;Laerm;31365;48.858;8.530;2023-03-01T16:59:00;64.68;45.14;76.76;;
45651;Laerm;31365;48.858;8.530;2023-03-01T17:01:32;67.05;47.76;85.78;;
45651;Laerm;31365;48.858;8.530;2023-03-01T17:04:11;65.34;48.96;86.53;;
45651;Laerm;31365;48.858;8.530;2023-03-01T17:06:39;65.26;45.36;79.03;;
45651;Laerm;31365;48.858;8.530;2023-03-01T17:09:09;62.23;47.36;75.72;;
45651;Laerm;31365;48.858;8.530;2023-03-01T17:11:40;64.05;45.14;80.38;;
45651;Laerm;31365;48.858;8.530;2023-03-01T17:14:08;60.60;45.04;73.12;;